St. Elmo — WDG2405 — position and weather

sailwx.info

Track history (hours):
 
Tides and Currents Weather Stations Pressure Air Temp Water Temp Dewpoint Dewpoint Depression Visibility Wind Speed Wind Dir Waves Ship Positions

St. Elmo

Owner: Marquette Transportation Company Gulf-Inland, LLC, Jefferson, LA. More information available from US FCC via Universal Licensing System and Coast Guard Vessel Documentation Center.

Last reported at 2015-Jul-29 14:21 UTC. Time now 2015-Jul-30 04:07 UTC.
Position N 29°46' W 095°06'.

; draft 3.2 m.

MMSI: 367515330.

Date/timePositionNaut miles runAvg speedWind from/ knotsBaromVisibWave heightAir tempDewpointWater temp
2015-Jul-29 14:21N 29°46' W 095°06'0 0.0
2015-Jul-29 13:31N 29°46' W 095°06'0 0.0
2015-Jul-29 12:32N 29°46' W 095°06'0 0.0
2015-Jul-29 10:33N 29°46' W 095°06'0 0.0
2015-Jul-29 09:32N 29°46' W 095°06'0 0.0
2015-Jul-29 08:30N 29°46' W 095°06'0 0.0
2015-Jul-29 07:33N 29°46' W 095°06'0 0.0
2015-Jul-29 06:33N 29°46' W 095°06'0 0.0
2015-Jul-29 05:33N 29°46' W 095°06'0 0.0
2015-Jul-29 04:33N 29°46' W 095°06'0 0.0
2015-Jul-29 02:27N 29°46' W 095°06'0 0.0
2015-Jul-29 01:27N 29°46' W 095°06'0 0.0
2015-Jul-29 00:30N 29°46' W 095°06'0 0.0
2015-Jul-28 23:23N 29°46' W 095°06'0 0.0
2015-Jul-28 22:32N 29°46' W 095°06'0 0.0
2015-Jul-28 21:33N 29°46' W 095°06'0 0.0
2015-Jul-28 20:17N 29°46' W 095°06'0 0.0
2015-Jul-28 19:32N 29°46' W 095°06'2 0.2
2015-Jul-28 10:30N 29°45' W 095°04'6 6.5
2015-Jul-28 09:34N 29°41' W 094°59'7 6.8
2015-Jul-28 08:34N 29°34' W 094°56'1 0.0
2015-Jul-26 17:33N 29°35' W 094°56'5 5.0
2015-Jul-26 16:33N 29°37' W 095°01'0 0.0
2015-Jul-26 15:25N 29°37' W 095°02'0 0.0
2015-Jul-26 14:29N 29°37' W 095°02'0 0.0
2015-Jul-26 13:32N 29°37' W 095°02'0 0.0
2015-Jul-26 12:33N 29°37' W 095°02'0 0.0
2015-Jul-26 11:34N 29°37' W 095°02'0 0.0
2015-Jul-26 10:34N 29°37' W 095°02'0 0.0
2015-Jul-26 09:33N 29°37' W 095°02'0 0.0
2015-Jul-26 08:32N 29°37' W 095°02'0 0.0
2015-Jul-26 07:33N 29°37' W 095°02'0 0.0
2015-Jul-26 06:33N 29°37' W 095°02'0 0.0
2015-Jul-26 05:34N 29°37' W 095°02'0 0.0
2015-Jul-26 04:33N 29°37' W 095°02'0 0.0
2015-Jul-26 03:33N 29°37' W 095°02'0 0.0
2015-Jul-26 02:33N 29°37' W 095°02'0 0.0
2015-Jul-26 01:33N 29°37' W 095°02'0 0.0
2015-Jul-26 00:33N 29°37' W 095°01'0 0.0
2015-Jul-25 23:33N 29°37' W 095°01'0 0.0
2015-Jul-25 22:34N 29°37' W 095°01'0 0.2
2015-Jul-25 21:34N 29°37' W 095°01'0 0.0
2015-Jul-25 20:34N 29°37' W 095°01'0 0.0
2015-Jul-25 19:34N 29°37' W 095°01'0 0.0
2015-Jul-25 18:33N 29°37' W 095°01'0 0.0
2015-Jul-25 17:34N 29°37' W 095°01'0 0.0
2015-Jul-25 16:34N 29°37' W 095°01'0 0.0
2015-Jul-25 15:34N 29°37' W 095°01'0 0.0
2015-Jul-25 14:34N 29°37' W 095°01'0 0.0
2015-Jul-25 13:33N 29°37' W 095°01'0 0.0
2015-Jul-25 12:33N 29°37' W 095°01'0 0.0
2015-Jul-25 11:34N 29°37' W 095°01'0 0.0
2015-Jul-25 10:33N 29°37' W 095°01'0 0.0
2015-Jul-25 09:33N 29°37' W 095°01'0 0.0
2015-Jul-25 08:33N 29°37' W 095°01'0 0.0
2015-Jul-25 07:34N 29°37' W 095°01'0 0.0
2015-Jul-25 06:33N 29°37' W 095°01'0 0.0
2015-Jul-25 05:33N 29°37' W 095°01'0 0.0
2015-Jul-25 04:34N 29°37' W 095°01'0 0.0
2015-Jul-25 03:33N 29°37' W 095°01'0 0.0
2015-Jul-25 02:33N 29°37' W 095°01'0 0.0
2015-Jul-25 01:34N 29°37' W 095°01'0 0.0
2015-Jul-25 00:34N 29°37' W 095°01'0 0.0
2015-Jul-24 23:34N 29°37' W 095°01'1 1.2
2015-Jul-24 22:34N 29°37' W 095°00'6 6.2
2015-Jul-24 21:34N 29°33' W 094°54'  
2015-Jul-19 14:31N 28°57' W 095°20'  
Track history (hours):
 
Tides and Currents Weather Stations Pressure Air Temp Water Temp Dewpoint Dewpoint Depression Visibility Wind Speed Wind Dir Waves Ship Positions

St. Elmo

Owner: Marquette Transportation Company Gulf-Inland, LLC, Jefferson, LA. More information available from US FCC via Universal Licensing System and Coast Guard Vessel Documentation Center.

Last reported at 2015-Jul-29 14:21 UTC. Time now 2015-Jul-30 04:07 UTC.
Position N 29°46' W 095°06'.

; draft 3.2 m.

MMSI: 367515330.

Date/timePositionNaut miles runAvg speedWind from/ knotsBaromVisibWave heightAir tempDewpointWater temp
2015-Jul-29 14:21N 29°46' W 095°06'0 0.0
2015-Jul-29 13:31N 29°46' W 095°06'0 0.0
2015-Jul-29 12:32N 29°46' W 095°06'0 0.0
2015-Jul-29 10:33N 29°46' W 095°06'0 0.0
2015-Jul-29 09:32N 29°46' W 095°06'0 0.0
2015-Jul-29 08:30N 29°46' W 095°06'0 0.0
2015-Jul-29 07:33N 29°46' W 095°06'0 0.0
2015-Jul-29 06:33N 29°46' W 095°06'0 0.0
2015-Jul-29 05:33N 29°46' W 095°06'0 0.0
2015-Jul-29 04:33N 29°46' W 095°06'0 0.0
2015-Jul-29 02:27N 29°46' W 095°06'0 0.0
2015-Jul-29 01:27N 29°46' W 095°06'0 0.0
2015-Jul-29 00:30N 29°46' W 095°06'0 0.0
2015-Jul-28 23:23N 29°46' W 095°06'0 0.0
2015-Jul-28 22:32N 29°46' W 095°06'0 0.0
2015-Jul-28 21:33N 29°46' W 095°06'0 0.0
2015-Jul-28 20:17N 29°46' W 095°06'0 0.0
2015-Jul-28 19:32N 29°46' W 095°06'2 0.2
2015-Jul-28 10:30N 29°45' W 095°04'6 6.5
2015-Jul-28 09:34N 29°41' W 094°59'7 6.8
2015-Jul-28 08:34N 29°34' W 094°56'1 0.0
2015-Jul-26 17:33N 29°35' W 094°56'5 5.0
2015-Jul-26 16:33N 29°37' W 095°01'0 0.0
2015-Jul-26 15:25N 29°37' W 095°02'0 0.0
2015-Jul-26 14:29N 29°37' W 095°02'0 0.0
2015-Jul-26 13:32N 29°37' W 095°02'0 0.0
2015-Jul-26 12:33N 29°37' W 095°02'0 0.0
2015-Jul-26 11:34N 29°37' W 095°02'0 0.0
2015-Jul-26 10:34N 29°37' W 095°02'0 0.0
2015-Jul-26 09:33N 29°37' W 095°02'0 0.0
2015-Jul-26 08:32N 29°37' W 095°02'0 0.0
2015-Jul-26 07:33N 29°37' W 095°02'0 0.0
2015-Jul-26 06:33N 29°37' W 095°02'0 0.0
2015-Jul-26 05:34N 29°37' W 095°02'0 0.0
2015-Jul-26 04:33N 29°37' W 095°02'0 0.0
2015-Jul-26 03:33N 29°37' W 095°02'0 0.0
2015-Jul-26 02:33N 29°37' W 095°02'0 0.0
2015-Jul-26 01:33N 29°37' W 095°02'0 0.0
2015-Jul-26 00:33N 29°37' W 095°01'0 0.0
2015-Jul-25 23:33N 29°37' W 095°01'0 0.0
2015-Jul-25 22:34N 29°37' W 095°01'0 0.2
2015-Jul-25 21:34N 29°37' W 095°01'0 0.0
2015-Jul-25 20:34N 29°37' W 095°01'0 0.0
2015-Jul-25 19:34N 29°37' W 095°01'0 0.0
2015-Jul-25 18:33N 29°37' W 095°01'0 0.0
2015-Jul-25 17:34N 29°37' W 095°01'0 0.0
2015-Jul-25 16:34N 29°37' W 095°01'0 0.0
2015-Jul-25 15:34N 29°37' W 095°01'0 0.0
2015-Jul-25 14:34N 29°37' W 095°01'0 0.0
2015-Jul-25 13:33N 29°37' W 095°01'0 0.0
2015-Jul-25 12:33N 29°37' W 095°01'0 0.0
2015-Jul-25 11:34N 29°37' W 095°01'0 0.0
2015-Jul-25 10:33N 29°37' W 095°01'0 0.0
2015-Jul-25 09:33N 29°37' W 095°01'0 0.0
2015-Jul-25 08:33N 29°37' W 095°01'0 0.0
2015-Jul-25 07:34N 29°37' W 095°01'0 0.0
2015-Jul-25 06:33N 29°37' W 095°01'0 0.0
2015-Jul-25 05:33N 29°37' W 095°01'0 0.0
2015-Jul-25 04:34N 29°37' W 095°01'0 0.0
2015-Jul-25 03:33N 29°37' W 095°01'0 0.0
2015-Jul-25 02:33N 29°37' W 095°01'0 0.0
2015-Jul-25 01:34N 29°37' W 095°01'0 0.0
2015-Jul-25 00:34N 29°37' W 095°01'0 0.0
2015-Jul-24 23:34N 29°37' W 095°01'1 1.2
2015-Jul-24 22:34N 29°37' W 095°00'6 6.2
2015-Jul-24 21:34N 29°33' W 094°54'  
2015-Jul-19 14:31N 28°57' W 095°20'  

Dump ship's entire track history